Time;durP1;ratioP1;P1;durP2;ratioP2;P2;SDS_P1;SDS_P2;PMS_P1;PMS_P2;Temp;Humidity;BMP_temperature;BMP_pressure;BME280_temperature;BME280_humidity;BME280_pressure;Samples;Min_cycle;Max_cycle;Signal;HPM_P1;HPM_P2
2023/07/18 00:00:06;;;;;;;10.38;5.30;;;;;;;27.27;44.32;99293.63;4963666;28;20089;-90
2023/07/18 00:02:33;;;;;;;10.15;5.05;;;;;;;27.29;44.74;99307.88;4965009;28;20023;-90
2023/07/18 00:04:59;;;;;;;6.55;4.88;;;;;;;27.12;44.93;99287.19;4965533;28;20121;-90
2023/07/18 00:07:25;;;;;;;10.60;5.50;;;;;;;27.07;45.79;99297.78;4964944;28;20033;-90
2023/07/18 00:09:50;;;;;;;10.82;5.20;;;;;;;27.02;46.11;99287.88;4964078;28;20030;-90
2023/07/18 00:12:16;;;;;;;10.68;6.63;;;;;;;26.99;46.02;99280.34;4964161;28;20469;-90
2023/07/18 00:14:41;;;;;;;8.30;4.78;;;;;;;26.94;46.20;99289.78;4963416;28;20034;-90
2023/07/18 00:17:07;;;;;;;6.82;4.72;;;;;;;26.84;46.98;99281.41;4963902;28;20524;-90
2023/07/18 00:19:33;;;;;;;6.55;4.55;;;;;;;26.74;46.91;99286.41;4963135;28;20516;-90
2023/07/18 00:21:59;;;;;;;8.52;4.53;;;;;;;26.61;47.07;99271.31;4964039;28;20030;-90
2023/07/18 00:24:24;;;;;;;11.20;4.70;;;;;;;26.55;46.83;99264.50;4964217;28;20034;-90
2023/07/18 00:26:50;;;;;;;6.05;4.38;;;;;;;26.50;47.71;99262.88;4964133;28;20062;-89
2023/07/18 00:29:16;;;;;;;7.15;4.60;;;;;;;26.51;48.54;99269.19;4964098;28;20037;-90
2023/07/18 00:31:41;;;;;;;6.47;4.32;;;;;;;26.39;48.32;99264.72;4963470;28;20118;-90
2023/07/18 00:34:07;;;;;;;6.38;4.40;;;;;;;26.29;48.62;99257.13;4963913;28;20030;-90
2023/07/18 00:36:32;;;;;;;5.45;4.20;;;;;;;26.34;49.10;99265.06;4963572;28;20026;-90
2023/07/18 00:38:58;;;;;;;6.90;3.97;;;;;;;26.33;49.49;99269.78;4948123;28;20046;-89
2023/07/18 00:41:26;;;;;;;5.78;3.83;;;;;;;26.19;49.32;99253.09;4963656;28;20030;-89
2023/07/18 00:43:51;;;;;;;5.85;4.25;;;;;;;26.16;49.18;99270.38;4946992;28;20056;-90
2023/07/18 00:46:17;;;;;;;7.38;4.22;;;;;;;26.04;49.47;99260.38;4963986;28;20034;-90
2023/07/18 00:48:42;;;;;;;8.57;3.90;;;;;;;26.00;49.50;99262.28;4963642;28;20032;-90
2023/07/18 00:51:08;;;;;;;5.55;3.42;;;;;;;25.93;49.79;99243.69;4963060;28;20109;-89
2023/07/18 00:53:34;;;;;;;8.55;4.13;;;;;;;25.87;49.65;99244.38;4962642;28;20034;-90
2023/07/18 00:56:00;;;;;;;4.60;3.80;;;;;;;25.99;48.95;99253.22;4963133;28;20014;-90
2023/07/18 00:58:25;;;;;;;5.18;3.80;;;;;;;25.95;48.93;99230.31;4963809;28;20268;-90
2023/07/18 01:00:51;;;;;;;6.13;3.80;;;;;;;26.08;49.39;99250.16;4963672;28;20026;-89
2023/07/18 01:03:17;;;;;;;6.40;4.15;;;;;;;26.06;49.54;99249.75;4962719;28;20049;-90
2023/07/18 01:05:43;;;;;;;7.32;4.63;;;;;;;25.98;50.08;99242.56;4963821;28;20037;-90
2023/07/18 01:08:09;;;;;;;7.25;5.25;;;;;;;25.92;51.11;99235.78;4947609;28;20118;-90
2023/07/18 01:10:34;;;;;;;9.10;5.38;;;;;;;25.89;51.63;99248.38;4963452;28;20077;-90
2023/07/18 01:13:00;;;;;;;7.80;5.22;;;;;;;25.78;51.96;99248.19;4963125;28;20027;-90
2023/07/18 01:15:35;;;;;;;6.03;4.70;;;;;;;25.70;51.46;99243.75;4963992;28;20030;-90
2023/07/18 01:18:05;;;;;;;5.93;4.55;;;;;;;25.66;50.80;99248.44;4964554;28;20050;-89
2023/07/18 01:20:31;;;;;;;8.15;5.00;;;;;;;25.57;50.98;99239.66;4963786;28;20037;-90
2023/07/18 01:23:00;;;;;;;7.07;4.90;;;;;;;25.68;52.02;99253.56;4963936;28;20135;-90
2023/07/18 01:25:26;;;;;;;7.25;5.45;;;;;;;25.58;51.93;99249.50;4962999;28;20022;-90
2023/07/18 01:27:54;;;;;;;9.90;5.10;;;;;;;25.53;51.86;99242.34;4962916;28;20030;-89
2023/07/18 01:30:26;;;;;;;8.68;5.45;;;;;;;25.58;51.66;99239.25;4962710;28;20029;-90
2023/07/18 01:32:52;;;;;;;7.07;5.25;;;;;;;25.66;51.78;99245.66;4964169;28;20109;-90
2023/07/18 01:35:20;;;;;;;5.13;4.10;;;;;;;25.67;52.13;99243.69;4963382;28;20031;-90
2023/07/18 01:37:46;;;;;;;7.63;4.10;;;;;;;25.57;51.97;99237.69;4963498;28;20050;-90
2023/07/18 01:40:12;;;;;;;5.97;4.32;;;;;;;25.53;51.79;99231.31;4950821;28;20018;-90
2023/07/18 01:42:39;;;;;;;9.98;7.45;;;;;;;25.38;52.63;99218.47;4967914;28;20006;-90
2023/07/18 01:45:05;;;;;;;6.82;4.20;;;;;;;25.39;52.52;99225.59;4966783;28;20032;-90
2023/07/18 01:47:33;;;;;;;9.05;4.30;;;;;;;25.34;52.86;99235.00;4965972;28;20404;-90
2023/07/18 01:49:59;;;;;;;6.80;3.90;;;;;;;25.28;52.92;99233.72;4967152;28;20492;-89
2023/07/18 01:52:28;;;;;;;7.13;4.63;;;;;;;25.20;53.25;99224.53;4966458;28;20507;-90
2023/07/18 01:54:58;;;;;;;5.53;4.03;;;;;;;25.19;52.68;99228.44;4966263;28;20030;-90
2023/07/18 01:57:28;;;;;;;8.35;4.05;;;;;;;25.17;52.11;99229.97;4967507;28;20025;-90
2023/07/18 01:59:55;;;;;;;8.52;4.25;;;;;;;25.04;52.67;99221.09;4966948;28;20028;-90
2023/07/18 02:02:23;;;;;;;4.28;3.88;;;;;;;25.12;52.87;99233.84;4966227;28;20022;-89
2023/07/18 02:04:49;;;;;;;6.75;4.38;;;;;;;24.98;53.67;99219.81;4967180;28;20093;-89
2023/07/18 02:07:15;;;;;;;7.43;4.80;;;;;;;25.05;53.96;99239.25;4966007;28;20093;-90
2023/07/18 02:09:41;;;;;;;7.15;4.45;;;;;;;25.07;54.57;99242.44;4949715;28;20098;-89
2023/07/18 02:12:07;;;;;;;5.85;4.60;;;;;;;24.90;54.96;99237.41;4966440;28;20129;-90
2023/07/18 02:14:33;;;;;;;7.82;4.93;;;;;;;24.97;55.85;99229.28;4966578;28;20092;-89
2023/07/18 02:16:59;;;;;;;11.27;4.82;;;;;;;24.92;55.69;99226.81;4966225;28;20028;-89
2023/07/18 02:19:25;;;;;;;6.72;4.50;;;;;;;24.90;55.77;99240.97;4965804;28;20026;-90
2023/07/18 02:21:50;;;;;;;5.18;4.20;;;;;;;24.96;55.65;99246.94;4966044;28;20030;-89
2023/07/18 02:24:16;;;;;;;6.30;4.72;;;;;;;24.94;55.84;99232.75;4965989;28;20046;-89
2023/07/18 02:26:44;;;;;;;8.55;5.03;;;;;;;24.91;55.95;99228.00;4965849;28;20017;-90
2023/07/18 02:29:09;;;;;;;6.50;4.43;;;;;;;24.98;55.56;99237.16;4965826;28;20028;-89
2023/07/18 02:31:35;;;;;;;7.07;4.95;;;;;;;24.90;55.59;99224.44;4966209;28;20030;-90
2023/07/18 02:34:04;;;;;;;11.45;4.93;;;;;;;24.92;56.07;99226.81;4965440;28;20022;-90
2023/07/18 02:36:32;;;;;;;6.07;4.70;;;;;;;24.78;56.56;99233.69;4966887;28;20026;-90
2023/07/18 02:38:59;;;;;;;5.97;4.68;;;;;;;24.80;56.28;99238.84;4965323;28;20093;-89
2023/07/18 02:41:24;;;;;;;6.55;4.93;;;;;;;24.68;56.06;99228.78;4966118;28;20026;-89
2023/07/18 02:43:50;;;;;;;7.65;4.90;;;;;;;24.73;56.50;99244.19;4965687;28;20539;-90
2023/07/18 02:46:15;;;;;;;6.53;4.95;;;;;;;24.70;56.03;99234.72;4965517;28;20034;-90
2023/07/18 02:48:41;;;;;;;5.90;4.60;;;;;;;24.59;56.38;99234.53;4964986;28;20018;-89
2023/07/18 02:51:07;;;;;;;7.20;4.82;;;;;;;24.62;56.07;99233.00;4965785;28;20108;-90
2023/07/18 02:53:32;;;;;;;8.77;5.93;;;;;;;24.67;56.66;99256.69;4965908;28;20030;-89
2023/07/18 02:55:58;;;;;;;9.85;4.70;;;;;;;24.62;57.68;99251.50;4947880;28;20108;-89
2023/07/18 02:58:23;;;;;;;10.23;5.50;;;;;;;24.62;56.74;99252.28;4965103;28;20523;-90
2023/07/18 03:00:52;;;;;;;6.90;4.80;;;;;;;24.62;56.56;99238.50;4967440;28;20033;-90
2023/07/18 03:03:18;;;;;;;12.00;5.55;;;;;;;24.57;56.65;99247.06;4965159;28;20026;-89
2023/07/18 03:05:44;;;;;;;9.07;5.10;;;;;;;24.59;56.72;99250.25;4949785;28;20030;-89
2023/07/18 03:08:10;;;;;;;6.63;4.32;;;;;;;24.56;56.63;99248.22;4965932;28;20027;-90
2023/07/18 03:10:37;;;;;;;11.07;4.95;;;;;;;24.49;56.50;99245.34;4981855;28;20031;-90
2023/07/18 03:13:03;;;;;;;8.55;5.18;;;;;;;24.50;56.85;99252.44;4965935;28;20114;-90
2023/07/18 03:15:28;;;;;;;7.78;4.55;;;;;;;24.44;57.13;99242.88;4965811;28;20042;-92
2023/07/18 03:17:54;;;;;;;9.88;5.90;;;;;;;24.44;57.04;99245.63;4966044;28;20037;-91
2023/07/18 03:20:20;;;;;;;8.32;4.80;;;;;;;24.46;57.72;99251.56;4965333;28;20069;-92
2023/07/18 03:22:49;;;;;;;7.18;5.43;;;;;;;24.39;56.92;99241.22;4965205;28;20026;-91
2023/07/18 03:25:14;;;;;;;9.25;5.53;;;;;;;24.44;57.48;99249.16;4965319;28;20022;-91
2023/07/18 03:27:40;;;;;;;6.40;4.93;;;;;;;24.38;57.88;99245.94;4965206;28;20097;-91
2023/07/18 03:30:06;;;;;;;9.45;5.47;;;;;;;24.37;57.73;99243.53;4965609;28;20038;-91
2023/07/18 03:32:33;;;;;;;7.93;5.28;;;;;;;24.17;58.35;99234.50;4965991;28;20449;-91
2023/07/18 03:35:01;;;;;;;6.35;5.20;;;;;;;24.38;57.10;99247.84;4949526;28;20015;-92
2023/07/18 03:37:27;;;;;;;7.30;4.63;;;;;;;24.36;57.67;99253.75;4975576;28;20112;-91
2023/07/18 03:39:53;;;;;;;7.18;4.53;;;;;;;24.42;57.60;99256.97;4968861;28;20033;-92
2023/07/18 03:42:19;;;;;;;10.80;5.47;;;;;;;24.44;57.42;99256.63;4967297;28;20026;-90
2023/07/18 03:44:44;;;;;;;8.30;5.38;;;;;;;24.32;57.58;99254.81;4982376;28;20117;-91
2023/07/18 03:47:10;;;;;;;12.80;5.60;;;;;;;24.19;58.43;99249.47;4968398;28;20032;-91
2023/07/18 03:49:36;;;;;;;8.15;5.38;;;;;;;24.17;58.37;99257.28;4981276;28;20072;-91
2023/07/18 03:52:02;;;;;;;9.10;5.55;;;;;;;24.05;57.91;99253.91;4967286;28;20030;-90
2023/07/18 03:54:28;;;;;;;6.40;5.07;;;;;;;24.10;57.86;99250.88;4967094;28;20037;-90
2023/07/18 03:56:53;;;;;;;10.63;5.75;;;;;;;24.09;57.83;99252.00;4962102;28;20030;-91
2023/07/18 03:59:22;;;;;;;8.13;5.57;;;;;;;24.05;57.63;99251.97;4947272;28;20030;-90
2023/07/18 04:01:47;;;;;;;7.82;5.25;;;;;;;23.97;57.75;99241.97;4964215;28;20030;-91
2023/07/18 04:04:13;;;;;;;6.63;5.32;;;;;;;24.02;58.90;99254.63;4973631;28;20030;-91
2023/07/18 04:06:39;;;;;;;8.27;5.63;;;;;;;23.94;59.35;99253.69;4978071;28;20030;-91
2023/07/18 04:09:05;;;;;;;8.57;5.93;;;;;;;24.04;59.33;99266.84;4963722;28;20049;-91
2023/07/18 04:11:31;;;;;;;17.00;7.05;;;;;;;23.96;58.86;99260.41;4966776;28;20026;-88
2023/07/18 04:13:56;;;;;;;12.60;6.47;;;;;;;23.93;59.10;99263.88;4962515;28;20038;-90
2023/07/18 04:16:22;;;;;;;10.57;6.80;;;;;;;23.95;59.07;99258.03;4972394;28;20038;-90
2023/07/18 04:18:47;;;;;;;11.63;6.82;;;;;;;23.95;59.21;99247.03;4981920;28;20467;-90
2023/07/18 04:21:13;;;;;;;14.60;7.53;;;;;;;23.99;60.06;99248.69;4967519;28;20034;-90
2023/07/18 04:23:38;;;;;;;11.50;8.07;;;;;;;24.13;59.45;99258.38;4983750;28;20489;-91
2023/07/18 04:26:04;;;;;;;11.35;8.30;;;;;;;24.18;59.11;99252.59;4968000;28;20072;-89
2023/07/18 04:28:33;;;;;;;11.15;7.75;;;;;;;24.28;58.51;99254.78;4970697;28;20093;-90
2023/07/18 04:30:59;;;;;;;17.40;7.68;;;;;;;24.40;59.52;99262.06;4970457;28;20026;-90
2023/07/18 04:33:25;;;;;;;13.18;7.45;;;;;;;24.26;58.58;99246.09;4976135;28;20492;-91
2023/07/18 04:35:51;;;;;;;11.82;7.28;;;;;;;24.57;58.55;99274.59;4991553;28;20038;-91
2023/07/18 04:38:17;;;;;;;9.25;6.63;;;;;;;24.56;58.33;99259.25;4983309;28;20050;-90
2023/07/18 04:40:42;;;;;;;14.15;7.40;;;;;;;24.54;58.49;99248.59;4983182;28;20034;-90
2023/07/18 04:43:27;;;;;;;11.73;7.22;;;;;;;24.70;57.55;99262.25;4966796;28;20041;-89
2023/07/18 04:45:56;;;;;;;14.70;8.07;;;;;;;24.83;57.51;99262.88;4982401;28;20087;-90
2023/07/18 04:48:21;;;;;;;9.40;7.53;;;;;;;24.94;57.31;99258.31;4982171;28;20033;-91
2023/07/18 04:50:58;;;;;;;12.20;8.10;;;;;;;24.93;56.65;99255.97;4982331;28;20391;-90
2023/07/18 04:53:26;;;;;;;8.68;7.28;;;;;;;25.11;56.79;99270.00;4985911;28;20037;-95
2023/07/18 04:55:52;;;;;;;15.40;8.15;;;;;;;25.11;56.80;99267.25;5003962;28;20057;-95
2023/07/18 04:58:18;;;;;;;14.02;7.50;;;;;;;25.17;56.28;99263.84;4973122;28;20030;-91
2023/07/18 05:01:09;;;;;;;10.50;7.35;;;;;;;25.33;56.23;99271.19;4984199;28;20030;-90
2023/07/18 05:04:04;;;;;;;9.52;7.32;;;;;;;25.38;55.70;99273.63;4984601;28;20033;-90
2023/07/18 05:06:30;;;;;;;10.18;6.78;;;;;;;25.41;54.92;99273.69;5003334;28;20026;-94
2023/07/18 05:09:03;;;;;;;11.82;7.22;;;;;;;25.55;55.71;99267.59;4972384;28;20026;-94
2023/07/18 05:11:46;;;;;;;11.00;7.50;;;;;;;25.74;55.08;99276.91;4990888;28;20018;-94
2023/07/18 05:14:12;;;;;;;16.83;9.63;;;;;;;25.87;54.75;99283.78;4993484;28;20038;-94
2023/07/18 05:17:07;;;;;;;11.88;7.38;;;;;;;26.02;53.99;99276.50;5000219;28;20018;-96
2023/07/18 05:19:37;;;;;;;8.35;6.80;;;;;;;26.13;53.61;99282.19;4995576;28;20025;-94
2023/07/18 05:22:14;;;;;;;11.80;7.22;;;;;;;26.09;52.98;99284.09;5011228;28;20026;-94
2023/07/18 05:24:39;;;;;;;12.25;7.13;;;;;;;26.14;52.69;99275.47;4991516;28;20021;-96
2023/07/18 05:27:21;;;;;;;11.27;7.15;;;;;;;26.28;52.72;99275.66;4978315;28;20022;-95
2023/07/18 05:33:34;;;;;;;13.05;8.23;;;;;;;26.39;52.33;99243.44;5016776;28;20025;-95
2023/07/18 05:36:08;;;;;;;10.75;6.72;;;;;;;26.52;52.74;99249.50;4952773;29;20126;-93
2023/07/18 05:38:34;;;;;;;14.75;8.02;;;;;;;26.60;52.49;99251.19;4962534;28;20042;-96
2023/07/18 05:40:59;;;;;;;36.08;26.80;;;;;;;26.81;52.42;99264.41;4997794;28;20435;-95
2023/07/18 05:43:45;;;;;;;10.95;8.18;;;;;;;26.71;52.10;99253.22;4987416;28;20037;-96
2023/07/18 05:46:17;;;;;;;12.30;7.78;;;;;;;26.87;52.02;99251.00;5007023;28;20030;-94
2023/07/18 05:52:24;;;;;;;13.80;7.05;;;;;;;26.96;51.04;99242.44;5024864;28;20040;-96
2023/07/18 06:06:19;;;;;;;14.63;8.10;;;;;;;27.21;50.81;99243.41;5005330;28;20050;-95
2023/07/18 06:08:44;;;;;;;11.63;7.60;;;;;;;27.46;51.33;99264.16;4992009;28;20035;-95
2023/07/18 06:11:11;;;;;;;23.95;14.27;;;;;;;27.42;51.98;99239.22;4977195;28;20050;-92
2023/07/18 06:16:49;;;;;;;11.13;8.07;;;;;;;27.85;50.93;99264.38;5853460;23;20062;-95
2023/07/18 06:19:46;;;;;;;12.85;8.65;;;;;;;27.84;50.75;99253.69;5035221;28;20030;-95
2023/07/18 06:22:10;;;;;;;11.65;8.18;;;;;;;28.04;50.79;99246.69;5022374;28;20133;-94
2023/07/18 06:27:26;;;;;;;14.88;8.48;;;;;;;28.30;50.28;99236.47;5125979;23;20057;-96
2023/07/18 06:29:55;;;;;;;12.13;8.70;;;;;;;28.59;49.74;99265.06;4994370;28;20030;-96
2023/07/18 06:32:23;;;;;;;18.10;9.48;;;;;;;28.61;49.60;99260.69;5012926;28;20105;-94
2023/07/18 06:35:44;;;;;;;;;;;;;;;;;;;;;
2023/07/18 06:46:11;;;;;;;11.13;8.93;;;;;;;29.24;49.68;99251.25;5694881;22;20046;-94
2023/07/18 06:51:49;;;;;;;12.35;9.35;;;;;;;29.50;48.92;99250.03;5440202;22;20021;-96
2023/07/18 06:54:24;;;;;;;14.85;9.68;;;;;;;29.40;48.41;99226.66;4952132;29;20082;-95
2023/07/18 06:57:06;;;;;;;10.45;8.93;;;;;;;29.56;48.44;99218.69;4937378;29;20030;-96
2023/07/18 06:59:31;;;;;;;11.60;8.50;;;;;;;29.82;48.11;99247.19;4926632;29;20027;-95
2023/07/18 07:02:22;;;;;;;18.98;14.07;;;;;;;30.10;47.47;99257.41;4937393;29;20046;-95
2023/07/18 07:09:58;;;;;;;12.15;9.77;;;;;;;30.41;47.24;99233.44;5308067;23;20508;-93
2023/07/18 07:12:27;;;;;;;15.68;11.50;;;;;;;30.68;46.59;99251.53;5007295;28;20028;-94
2023/07/18 07:18:41;;;;;;;12.50;8.38;;;;;;;30.84;46.37;99229.59;4995638;28;20043;-95
2023/07/18 07:21:10;;;;;;;13.75;7.78;;;;;;;31.10;45.25;99239.31;5041043;23;20054;-94
2023/07/18 07:24:08;;;;;;;9.25;7.63;;;;;;;31.24;46.61;99249.53;4980668;28;20030;-95
2023/07/18 07:26:40;;;;;;;17.45;11.90;;;;;;;31.24;46.22;99226.47;4967723;28;20034;-94
2023/07/18 07:29:09;;;;;;;12.90;8.05;;;;;;;31.44;44.07;99235.03;4988036;28;20096;-95
2023/07/18 07:31:37;;;;;;;10.23;7.65;;;;;;;31.58;44.17;99235.66;4990901;28;20084;-94
2023/07/18 07:37:08;;;;;;;9.23;7.90;;;;;;;31.70;44.13;99237.13;5796706;22;20076;-95
2023/07/18 07:40:07;;;;;;;10.57;8.52;;;;;;;31.58;44.23;99218.97;5039475;28;20033;-96
2023/07/18 07:53:36;;;;;;;10.53;8.93;;;;;;;31.95;44.28;99222.91;1180059;23;20397;31
2023/07/18 07:57:11;;;;;;;13.15;8.40;;;;;;;32.12;43.44;99248.19;4952401;28;20346;-90
2023/07/18 07:59:40;;;;;;;17.70;8.65;;;;;;;32.16;43.56;99235.00;4992628;28;20030;-91
2023/07/18 08:06:03;;;;;;;;;;;;;;;;;;;;;
2023/07/18 08:13:37;;;;;;;16.58;10.65;;;;;;;32.46;41.90;99238.97;5009242;28;20071;-95
2023/07/18 08:16:06;;;;;;;9.32;8.30;;;;;;;32.32;41.72;99224.03;5084143;23;20394;-95
2023/07/18 08:22:08;;;;;;;11.98;8.15;;;;;;;32.47;41.94;99252.47;4990782;28;20025;-93
2023/07/18 08:24:38;;;;;;;10.17;8.17;;;;;;;32.28;42.94;99236.44;4981043;28;20491;-95
2023/07/18 08:30:26;;;;;;;;;;;;;;;;;;;;;
2023/07/18 08:33:24;;;;;;;11.82;9.07;;;;;;;32.38;42.40;99255.81;4978863;28;20122;-91
2023/07/18 08:42:34;;;;;;;59.00;37.87;;;;;;;32.33;43.47;99244.31;4988672;28;20109;-95
2023/07/18 08:45:13;;;;;;;14.15;12.07;;;;;;;32.63;44.32;99245.53;4984977;28;20049;-96
2023/07/18 08:47:39;;;;;;;15.57;8.60;;;;;;;32.77;42.37;99250.88;4971446;28;20073;-91
2023/07/18 08:50:06;;;;;;;10.68;8.63;;;;;;;32.86;42.45;99250.34;4952107;28;20026;-91
2023/07/18 08:52:58;;;;;;;10.98;8.85;;;;;;;32.66;42.18;99264.97;4974726;28;20408;-90
2023/07/18 08:55:31;;;;;;;11.20;8.45;;;;;;;32.73;42.29;99244.59;4950455;28;20102;-92
2023/07/18 08:57:57;;;;;;;14.82;8.60;;;;;;;32.79;41.33;99243.66;4952645;28;20038;-91
2023/07/18 09:00:30;;;;;;;10.57;9.48;;;;;;;32.97;42.26;99256.53;4962235;28;20067;-88
2023/07/18 09:03:17;;;;;;;13.63;9.30;;;;;;;32.90;42.28;99256.66;4950904;28;20053;-91
2023/07/18 09:05:45;;;;;;;11.18;9.27;;;;;;;32.77;42.35;99245.31;4970454;28;20026;-89
2023/07/18 09:08:11;;;;;;;10.60;8.88;;;;;;;32.92;42.29;99245.88;4952391;28;20094;-90
2023/07/18 09:10:36;;;;;;;12.73;9.95;;;;;;;33.01;41.25;99246.09;4950588;28;20058;-91
2023/07/18 09:13:07;;;;;;;13.10;8.93;;;;;;;33.15;41.16;99243.09;4952072;28;20061;-94
2023/07/18 09:15:56;;;;;;;;;;;;;;;33.30;41.98;99254.00;4956880;28;20101;-93
2023/07/18 09:18:49;;;;;;;10.57;9.13;;;;;;;33.27;41.47;99229.72;4990496;28;19910;-95
2023/07/18 09:21:16;;;;;;;12.50;10.20;;;;;;;33.29;40.45;99239.28;4993626;28;20101;-93
2023/07/18 09:23:42;;;;;;;13.27;10.90;;;;;;;33.30;40.45;99240.06;4987014;28;20025;-94
2023/07/18 09:26:11;;;;;;;14.73;9.57;;;;;;;33.39;39.72;99248.63;4970005;28;20496;-95
2023/07/18 09:28:37;;;;;;;11.45;9.80;;;;;;;33.36;39.92;99235.56;4954127;28;20030;-94
2023/07/18 09:31:17;;;;;;;13.60;9.55;;;;;;;33.54;39.83;99254.78;4951570;28;20050;-95
2023/07/18 09:33:49;;;;;;;13.80;10.18;;;;;;;33.46;39.48;99228.97;4970563;28;20031;-96
2023/07/18 09:36:22;;;;;;;13.98;10.50;;;;;;;33.65;39.37;99244.19;4971738;28;20062;-96
2023/07/18 09:38:49;;;;;;;16.27;9.90;;;;;;;33.65;39.31;99237.84;4968951;28;20482;-96
2023/07/18 09:41:23;;;;;;;15.98;10.35;;;;;;;33.80;39.38;99231.50;4952374;28;20117;-96
2023/07/18 09:43:53;;;;;;;16.48;9.93;;;;;;;34.00;39.16;99242.69;4944751;28;20019;-94
2023/07/18 09:49:44;;;;;;;9.77;8.75;;;;;;;33.98;38.94;99235.97;4990219;28;20069;-96
2023/07/18 09:52:15;;;;;;;10.15;9.15;;;;;;;34.07;38.59;99232.56;4955521;28;20030;-96
2023/07/18 09:57:30;;;;;;;12.18;8.57;;;;;;;34.25;38.06;99244.19;4967815;28;20040;-96
2023/07/18 10:00:19;;;;;;;12.75;8.77;;;;;;;34.41;38.05;99241.44;4975759;28;20040;-94
2023/07/18 10:03:45;;;;;;;10.45;9.15;;;;;;;34.29;38.32;99218.97;4991529;28;20030;-94
2023/07/18 10:09:17;;;;;;;10.35;8.38;;;;;;;34.67;36.95;99238.06;4950929;29;21835;-93
2023/07/18 10:16:12;;;;;;;10.18;8.20;;;;;;;34.59;36.28;99210.22;4938091;29;20032;-96
2023/07/18 10:18:59;;;;;;;8.35;7.38;;;;;;;34.71;36.08;99216.41;4930730;28;20029;-95
2023/07/18 10:21:32;;;;;;;10.13;8.02;;;;;;;34.66;35.88;99211.31;4938464;29;20032;-95
2023/07/18 10:24:07;;;;;;;11.93;8.27;;;;;;;34.73;35.71;99211.16;4930759;29;20035;-93
2023/07/18 10:26:35;;;;;;;14.25;8.32;;;;;;;34.90;35.77;99226.69;4930651;29;20067;-92
2023/07/18 10:32:41;;;;;;;10.13;8.23;;;;;;;35.18;35.28;99224.44;4957224;29;20052;-91
2023/07/18 10:35:15;;;;;;;9.20;8.27;;;;;;;35.19;35.48;99217.59;4924664;29;20035;-91
2023/07/18 10:38:25;;;;;;;9.05;7.50;;;;;;;35.07;34.74;99218.28;4933167;29;20052;-91
2023/07/18 10:41:17;;;;;;;10.70;8.07;;;;;;;35.08;35.33;99209.47;4932458;29;20099;-91
2023/07/18 10:43:57;;;;;;;10.18;8.20;;;;;;;35.12;35.24;99172.97;4854963;29;20033;-93
2023/07/18 10:46:23;;;;;;;;;;;;;;;35.22;35.45;99208.34;4842537;29;20030;-94
2023/07/18 10:48:52;;;;;;;10.48;8.38;;;;;;;35.00;35.99;99182.88;4904439;29;19935;-93
2023/07/18 10:51:17;;;;;;;10.20;8.20;;;;;;;34.93;35.64;99178.25;4909840;29;20032;-92
2023/07/18 10:53:44;;;;;;;10.68;9.52;;;;;;;34.98;35.97;99179.75;4939524;28;20026;-91
2023/07/18 10:56:45;;;;;;;9.50;8.18;;;;;;;35.27;35.41;99190.19;4973835;28;20007;-91
2023/07/18 10:59:16;;;;;;;10.23;8.43;;;;;;;35.34;35.09;99167.59;4938450;28;20034;-92
2023/07/18 11:01:43;;;;;;;8.27;7.45;;;;;;;35.44;34.99;99174.13;4932548;28;20504;-91
2023/07/18 11:04:11;;;;;;;8.30;7.47;;;;;;;35.48;34.89;99191.63;4965804;28;20019;-93
2023/07/18 11:07:10;;;;;;;12.55;7.70;;;;;;;35.47;34.15;99170.44;4968673;28;20023;-92
2023/07/18 11:09:42;;;;;;;9.93;7.15;;;;;;;35.41;34.40;99156.22;4931979;29;20067;-92
2023/07/18 11:12:39;;;;;;;10.02;7.25;;;;;;;35.29;34.72;99166.13;4963309;28;20030;-90
2023/07/18 11:16:00;;;;;;;10.52;7.18;;;;;;;35.26;34.04;99180.22;4962943;28;20116;-93
2023/07/18 11:18:25;;;;;;;;;;;;;;;35.27;34.89;99187.41;4937425;28;20043;-92
2023/07/18 11:20:54;;;;;;;10.27;6.43;;;;;;;35.06;33.79;99171.94;4984872;28;19909;-92
2023/07/18 11:23:55;;;;;;;9.35;6.70;;;;;;;35.04;33.87;99154.81;4967860;28;20030;-91
2023/07/18 11:26:56;;;;;;;8.88;6.70;;;;;;;35.15;34.60;99147.72;4914853;29;20043;-89
2023/07/18 11:29:34;;;;;;;10.05;6.45;;;;;;;35.22;33.56;99155.91;4915948;29;20043;-92
2023/07/18 11:57:35;;;;;;;8.13;5.63;;;;;;;35.70;31.38;99121.81;4951201;28;20102;-95
2023/07/18 12:00:49;;;;;;;;;;;;;;;;;;;;;
2023/07/18 12:03:43;;;;;;;8.93;6.00;;;;;;;35.59;33.28;99117.28;4939197;29;20078;-96
2023/07/18 12:06:08;;;;;;;8.65;5.63;;;;;;;35.48;32.19;99118.81;4878086;29;20516;-96
2023/07/18 12:16:21;;;;;;;8.50;5.90;;;;;;;35.69;32.56;99123.78;4834574;29;20053;-96
2023/07/18 12:19:23;;;;;;;;;;;;;;;;;;;;;
2023/07/18 12:22:11;;;;;;;13.25;6.28;;;;;;;36.02;31.78;99127.19;4891321;29;20061;-95
2023/07/18 12:24:38;;;;;;;9.02;6.00;;;;;;;35.97;31.19;99119.34;4893827;29;20032;-96
2023/07/18 12:27:05;;;;;;;8.98;5.10;;;;;;;36.08;31.13;99132.25;4897229;29;20033;-95
2023/07/18 12:29:31;;;;;;;8.25;5.70;;;;;;;36.05;30.58;99127.50;4879194;29;20096;-95
2023/07/18 12:31:57;;;;;;;6.00;4.95;;;;;;;36.09;29.91;99126.19;4879113;29;20032;-96
2023/07/18 12:37:19;;;;;;;7.57;5.57;;;;;;;36.09;30.31;99116.97;5641380;22;20025;-95
2023/07/18 12:51:36;;;;;;;8.88;5.78;;;;;;;36.75;29.64;99104.03;5393941;22;20061;-96
2023/07/18 12:54:09;;;;;;;8.27;5.32;;;;;;;36.88;29.15;99089.13;5019788;28;20049;-95
2023/07/18 12:57:05;;;;;;;;;;;;;;;;;;;;;
2023/07/18 12:59:37;;;;;;;12.82;5.70;;;;;;;36.99;29.28;99097.97;4998544;28;20076;-95
2023/07/18 13:02:59;;;;;;;7.88;4.93;;;;;;;37.04;29.03;99100.19;5017555;28;20034;-96
2023/07/18 13:05:28;;;;;;;10.02;5.60;;;;;;;37.05;28.82;99104.56;5007453;28;20037;-96
2023/07/18 13:08:06;;;;;;;6.10;5.50;;;;;;;37.08;28.74;99084.00;4994896;28;20137;-96
2023/07/18 13:10:40;;;;;;;10.73;6.25;;;;;;;36.91;29.03;99074.97;4997938;28;20025;-96
2023/07/18 13:13:13;;;;;;;8.85;5.82;;;;;;;37.08;29.45;99078.38;5011565;28;20056;-96
2023/07/18 13:15:41;;;;;;;7.72;6.03;;;;;;;37.16;29.18;99060.06;5026557;28;20093;-91
2023/07/18 13:18:15;;;;;;;8.68;6.00;;;;;;;37.27;29.50;99067.28;4984641;28;20034;-91
2023/07/18 13:20:44;;;;;;;18.33;7.45;;;;;;;37.52;29.34;99069.16;4985942;28;20034;-91
2023/07/18 13:23:10;;;;;;;9.27;6.03;;;;;;;37.69;28.18;99059.28;4967535;28;20403;-89
2023/07/18 13:25:36;;;;;;;6.40;5.63;;;;;;;37.75;28.57;99065.88;4966813;28;20425;-89
2023/07/18 13:28:11;;;;;;;9.52;6.15;;;;;;;37.59;29.23;99064.06;4985062;28;20037;-90
2023/07/18 13:31:00;;;;;;;8.07;5.93;;;;;;;37.97;28.34;99051.72;4965279;28;20034;-89
2023/07/18 13:33:28;;;;;;;7.05;6.00;;;;;;;38.21;27.72;99060.41;4960863;28;20035;-91
2023/07/18 13:35:55;;;;;;;14.18;6.65;;;;;;;38.16;28.17;99063.03;4959305;28;20051;-90
2023/07/18 13:38:44;;;;;;;8.75;5.80;;;;;;;38.29;27.83;99054.47;4961176;28;20041;-91
2023/07/18 13:41:11;;;;;;;11.52;6.40;;;;;;;38.45;28.13;99068.25;4956891;28;20046;-93
2023/07/18 13:43:52;;;;;;;8.38;5.57;;;;;;;38.58;26.24;99052.03;4949975;28;20027;-91
2023/07/18 13:46:18;;;;;;;9.00;6.25;;;;;;;38.69;26.26;99045.16;4946384;28;20123;-92
2023/07/18 13:49:06;;;;;;;9.27;5.90;;;;;;;38.81;25.24;99035.78;4971578;28;20030;-94
2023/07/18 13:51:43;;;;;;;12.43;6.75;;;;;;;39.12;25.28;99049.69;4955514;28;20035;-93
2023/07/18 13:54:14;;;;;;;6.68;6.07;;;;;;;39.32;24.59;99051.19;4966285;28;20027;-94
2023/07/18 14:03:31;;;;;;;9.02;6.15;;;;;;;40.07;23.39;99030.69;4944170;29;20120;-92
2023/07/18 14:06:08;;;;;;;8.57;6.00;;;;;;;40.15;23.06;99009.34;4942171;29;20036;-94
2023/07/18 14:08:50;;;;;;;6.50;5.82;;;;;;;40.41;22.81;99037.09;4946156;29;20038;-91
2023/07/18 14:11:16;;;;;;;7.72;5.65;;;;;;;40.21;23.38;99003.81;4943390;29;20134;-91
2023/07/18 14:13:42;;;;;;;6.78;5.50;;;;;;;40.68;23.16;99027.63;4940723;29;20051;-94
2023/07/18 14:16:11;;;;;;;8.32;6.18;;;;;;;40.75;22.79;99023.66;4947521;28;20055;-93
2023/07/18 14:18:56;;;;;;;6.63;5.90;;;;;;;40.54;23.60;99051.72;5019565;28;20065;-91
2023/07/18 14:22:20;;;;;;;7.22;5.40;;;;;;;39.85;22.90;99025.34;5004184;28;20132;-92
2023/07/18 14:24:56;;;;;;;10.45;5.80;;;;;;;39.35;23.55;99025.69;5005790;28;20041;-92
2023/07/18 14:27:41;;;;;;;9.27;5.40;;;;;;;39.80;22.76;99023.94;4992133;28;20025;-91
2023/07/18 14:30:38;;;;;;;8.32;5.95;;;;;;;39.23;24.09;99037.91;5007350;28;20044;-90
2023/07/18 14:40:02;;;;;;;6.53;5.47;;;;;;;38.63;24.85;99016.84;4952371;28;20099;-91